Time,TemperatureF,DewpointF,PressureIn,WindDirection,WindDirectionDegrees,WindSpeedMPH,WindSpeedGustMPH,Humidity,HourlyPrecipIn,Conditions,Clouds,dailyrainin,SolarRadiationWatts/m^2,SoftwareType,DateUTC
2013-08-22 00:00:00,72.9,53.8,29.84,NNW,336,1.0,-999.0,47,-99.99,,,0.01,0.0,cwc,2013-08-22 06:00:00,
2013-08-22 00:10:00,72.5,53.4,29.84,NNW,336,1.0,-999.0,47,-99.99,,,0.00,0.0,cwc,2013-08-22 06:10:00,
2013-08-22 00:15:00,72.3,53.6,29.84,NNW,332,1.0,-999.0,48,-99.99,,,0.00,0.0,cwc,2013-08-22 06:15:00,
2013-08-22 00:20:00,72.1,53.4,29.84,NNW,331,1.0,-999.0,48,-99.99,,,0.00,0.0,cwc,2013-08-22 06:20:00,
2013-08-22 00:25:00,71.9,53.5,29.84,NNW,332,4.0,-999.0,49,-99.99,,,0.00,0.0,cwc,2013-08-22 06:25:00,
2013-08-22 00:30:00,71.5,53.1,29.84,NNW,342,5.0,-999.0,49,-99.99,,,0.00,0.0,cwc,2013-08-22 06:30:00,
2013-08-22 00:35:00,71.3,53.3,29.84,North,360,3.0,-999.0,50,-99.99,,,0.00,0.0,cwc,2013-08-22 06:35:00,
2013-08-22 00:40:00,71.0,53.0,29.84,North,355,4.0,-999.0,50,-99.99,,,0.00,0.0,cwc,2013-08-22 06:40:00,
2013-08-22 00:45:00,70.7,53.1,29.84,North,355,5.0,-999.0,51,-99.99,,,0.00,0.0,cwc,2013-08-22 06:45:00,
2013-08-22 00:55:00,70.3,53.0,29.84,North,350,5.0,-999.0,52,-99.99,,,0.00,0.0,cwc,2013-08-22 06:55:00,
2013-08-22 01:00:00,70.1,53.2,29.84,North,355,6.0,-999.0,53,-99.99,,,0.00,0.0,cwc,2013-08-22 07:00:00,
2013-08-22 01:05:00,69.9,53.3,29.84,North,355,6.0,-999.0,54,-99.99,,,0.00,0.0,cwc,2013-08-22 07:05:00,
2013-08-22 01:10:00,69.7,53.1,29.84,NNW,348,2.0,-999.0,54,-99.99,,,0.00,0.0,cwc,2013-08-22 07:10:00,
2013-08-22 01:15:00,69.5,52.9,29.84,NNW,348,2.0,-999.0,54,-99.99,,,0.00,0.0,cwc,2013-08-22 07:15:00,
2013-08-22 01:25:00,69.3,53.1,29.83,NNW,348,0.0,-999.0,55,-99.99,,,0.00,0.0,cwc,2013-08-22 07:25:00,
2013-08-22 01:35:00,69.2,53.0,29.83,NNW,348,2.0,-999.0,55,-99.99,,,0.00,0.0,cwc,2013-08-22 07:35:00,
2013-08-22 01:40:00,69.2,53.0,29.83,NNW,348,0.0,-999.0,55,-99.99,,,0.00,0.0,cwc,2013-08-22 07:40:00,
2013-08-22 01:45:00,69.2,53.0,29.83,NNW,348,1.0,-999.0,55,-99.99,,,0.00,0.0,cwc,2013-08-22 07:45:00,
2013-08-22 01:55:00,68.6,53.1,29.82,NNW,348,0.0,-999.0,57,-99.99,,,0.00,0.0,cwc,2013-08-22 07:55:00,
2013-08-22 02:00:00,68.1,52.6,29.82,NNW,348,0.0,-999.0,57,-99.99,,,0.00,0.0,cwc,2013-08-22 08:00:00,
2013-08-22 02:10:00,67.0,52.2,29.82,NNW,348,0.0,-999.0,59,-99.99,,,0.00,0.0,cwc,2013-08-22 08:10:00,
2013-08-22 02:20:00,66.1,52.1,29.83,NNW,348,0.0,-999.0,61,-99.99,,,0.00,0.0,cwc,2013-08-22 08:20:00,
2013-08-22 02:30:00,65.3,51.6,29.83,NNW,348,0.0,-999.0,62,-99.99,,,0.00,0.0,cwc,2013-08-22 08:30:00,
2013-08-22 02:35:00,65.0,51.7,29.82,NNW,348,0.0,-999.0,63,-99.99,,,0.00,0.0,cwc,2013-08-22 08:35:00,
2013-08-22 02:45:00,64.6,51.3,29.82,NNW,348,0.0,-999.0,63,-99.99,,,0.00,0.0,cwc,2013-08-22 08:45:00,
2013-08-22 02:50:00,64.2,51.2,29.83,NNW,348,0.0,-999.0,64,-99.99,,,0.00,0.0,cwc,2013-08-22 08:50:00,
2013-08-22 02:55:00,63.6,51.4,29.83,NNW,348,0.0,-999.0,66,-99.99,,,0.00,0.0,cwc,2013-08-22 08:55:00,
2013-08-22 03:00:00,63.1,51.2,29.82,NNW,348,0.0,-999.0,67,-99.99,,,0.00,0.0,cwc,2013-08-22 09:00:00,
2013-08-22 03:05:00,62.7,50.8,29.83,NNW,348,0.0,-999.0,67,-99.99,,,0.00,0.0,cwc,2013-08-22 09:05:00,
2013-08-22 03:10:00,62.4,50.5,29.82,NNW,348,0.0,-999.0,67,-99.99,,,0.00,0.0,cwc,2013-08-22 09:10:00,
2013-08-22 03:15:00,61.8,49.9,29.82,NNW,348,1.0,-999.0,67,-99.99,,,0.00,0.0,cwc,2013-08-22 09:15:00,
2013-08-22 03:25:00,60.9,50.5,29.82,NNW,348,0.0,-999.0,71,-99.99,,,0.00,0.0,cwc,2013-08-22 09:25:00,
2013-08-22 03:30:00,60.7,49.5,29.82,NNW,348,0.0,-999.0,69,-99.99,,,0.00,0.0,cwc,2013-08-22 09:30:00,
2013-08-22 03:40:00,60.1,49.3,29.82,NNW,348,1.0,-999.0,70,-99.99,,,0.00,0.0,cwc,2013-08-22 09:40:00,
2013-08-22 03:45:00,60.1,50.0,29.82,NNW,348,1.0,-999.0,72,-99.99,,,0.00,0.0,cwc,2013-08-22 09:45:00,
2013-08-22 03:50:00,60.2,50.1,29.82,NNW,348,1.0,-999.0,72,-99.99,,,0.00,0.0,cwc,2013-08-22 09:50:00,
2013-08-22 03:55:00,60.2,49.8,29.82,NNW,348,0.0,-999.0,71,-99.99,,,0.00,0.0,cwc,2013-08-22 09:55:00,
2013-08-22 04:00:00,60.2,49.8,29.82,NNW,348,0.0,-999.0,71,-99.99,,,0.00,0.0,cwc,2013-08-22 10:00:00,
2013-08-22 04:05:00,60.2,49.4,29.82,NNW,348,0.0,-999.0,70,-99.99,,,0.00,0.0,cwc,2013-08-22 10:05:00,
2013-08-22 04:10:00,60.1,49.3,29.82,NNW,348,0.0,-999.0,70,-99.99,,,0.00,0.0,cwc,2013-08-22 10:10:00,
2013-08-22 04:20:00,59.7,48.5,29.82,NNW,348,0.0,-999.0,69,-99.99,,,0.00,0.0,cwc,2013-08-22 10:20:00,
2013-08-22 04:25:00,59.4,49.0,29.82,NNW,348,0.0,-999.0,71,-99.99,,,0.00,0.0,cwc,2013-08-22 10:25:00,
2013-08-22 04:30:00,59.3,48.1,29.82,NNW,348,0.0,-999.0,69,-99.99,,,0.00,0.0,cwc,2013-08-22 10:30:00,
2013-08-22 04:35:00,59.0,48.2,29.82,NNW,348,0.0,-999.0,70,-99.99,,,0.00,0.0,cwc,2013-08-22 10:35:00,
2013-08-22 04:40:00,58.9,48.5,29.82,NNW,348,0.0,-999.0,71,-99.99,,,0.00,0.0,cwc,2013-08-22 10:40:00,
2013-08-22 04:45:00,58.4,48.0,29.82,NNW,348,0.0,-999.0,71,-99.99,,,0.00,0.0,cwc,2013-08-22 10:45:00,
2013-08-22 06:30:00,55.0,46.0,29.84,NNW,348,3.0,-999.0,75,-99.99,,,0.00,0.0,cwc,2013-08-22 12:30:00,
2013-08-22 06:35:00,54.7,45.7,29.84,NNW,348,2.0,-999.0,75,-99.99,,,0.00,5.0,cwc,2013-08-22 12:35:00,
2013-08-22 06:40:00,54.8,46.2,29.84,NNW,348,4.0,-999.0,76,-99.99,,,0.00,9.0,cwc,2013-08-22 12:40:00,
2013-08-22 06:45:00,55.0,46.0,29.84,NNW,348,0.0,-999.0,75,-99.99,,,0.00,12.0,cwc,2013-08-22 12:45:00,
2013-08-22 06:55:00,55.1,45.7,29.84,NNW,348,0.0,-999.0,74,-99.99,,,0.00,19.0,cwc,2013-08-22 12:55:00,
2013-08-22 07:05:00,55.0,46.4,29.85,NNW,348,0.0,-999.0,76,-99.99,,,0.00,39.0,cwc,2013-08-22 13:05:00,
2013-08-22 07:10:00,55.0,46.7,29.85,NNW,348,0.0,-999.0,77,-99.99,,,0.00,51.0,cwc,2013-08-22 13:10:00,
2013-08-22 07:15:00,55.0,46.4,29.85,NNW,348,0.0,-999.0,76,-99.99,,,0.00,58.0,cwc,2013-08-22 13:15:00,
2013-08-22 07:20:00,55.1,46.5,29.85,NNW,348,0.0,-999.0,76,-99.99,,,0.00,33.0,cwc,2013-08-22 13:20:00,
2013-08-22 07:25:00,55.2,46.6,29.85,NNW,348,2.0,-999.0,76,-99.99,,,0.00,37.0,cwc,2013-08-22 13:25:00,
2013-08-22 07:30:00,55.4,46.8,29.85,NNW,348,0.0,-999.0,76,-99.99,,,0.00,65.0,cwc,2013-08-22 13:30:00,
2013-08-22 07:40:00,55.7,47.1,29.86,NNW,348,0.0,-999.0,76,-99.99,,,0.00,171.0,cwc,2013-08-22 13:40:00,
2013-08-22 07:45:00,56.2,47.6,29.86,NNW,348,0.0,-999.0,76,-99.99,,,0.00,192.0,cwc,2013-08-22 13:45:00,
2013-08-22 07:50:00,57.1,48.5,29.86,NNW,348,0.0,-999.0,76,-99.99,,,0.00,211.0,cwc,2013-08-22 13:50:00,
2013-08-22 07:55:00,58.3,48.9,29.86,NNW,348,1.0,-999.0,74,-99.99,,,0.00,220.0,cwc,2013-08-22 13:55:00,
2013-08-22 08:05:00,60.3,49.5,29.86,NNW,348,4.0,-999.0,70,-99.99,,,0.00,267.0,cwc,2013-08-22 14:05:00,
2013-08-22 08:10:00,61.2,50.0,29.86,NNW,344,3.0,-999.0,69,-99.99,,,0.00,195.0,cwc,2013-08-22 14:10:00,
2013-08-22 08:15:00,61.8,50.6,29.86,NNW,342,3.0,-999.0,69,-99.99,,,0.00,313.0,cwc,2013-08-22 14:15:00,
2013-08-22 08:20:00,62.5,50.6,29.86,NNW,347,3.0,-999.0,67,-99.99,,,0.00,327.0,cwc,2013-08-22 14:20:00,
2013-08-22 08:25:00,63.2,51.3,29.86,North,360,6.0,-999.0,67,-99.99,,,0.00,294.0,cwc,2013-08-22 14:25:00,
2013-08-22 08:30:00,63.8,51.6,29.86,North,9,2.0,-999.0,66,-99.99,,,0.00,367.0,cwc,2013-08-22 14:30:00,
2013-08-22 08:35:00,64.3,51.7,29.86,NNE,13,2.0,-999.0,65,-99.99,,,0.00,214.0,cwc,2013-08-22 14:35:00,
2013-08-22 08:40:00,64.9,51.6,29.86,NNE,28,6.0,-999.0,63,-99.99,,,0.00,417.0,cwc,2013-08-22 14:40:00,
2013-08-22 08:45:00,65.2,51.5,29.86,NNE,15,3.0,-999.0,62,-99.99,,,0.00,311.0,cwc,2013-08-22 14:45:00,
2013-08-22 08:50:00,65.3,51.6,29.86,North,5,4.0,-999.0,62,-99.99,,,0.00,193.0,cwc,2013-08-22 14:50:00,
2013-08-22 08:55:00,65.5,51.8,29.86,North,5,5.0,-999.0,62,-99.99,,,0.00,496.0,cwc,2013-08-22 14:55:00,
2013-08-22 09:00:00,65.9,51.9,29.85,North,360,6.0,-999.0,61,-99.99,,,0.00,499.0,cwc,2013-08-22 15:00:00,
2013-08-22 09:05:00,66.4,52.0,29.85,North,5,1.0,-999.0,60,-99.99,,,0.00,499.0,cwc,2013-08-22 15:05:00,
2013-08-22 09:10:00,67.0,52.2,29.85,North,5,1.0,-999.0,59,-99.99,,,0.00,510.0,cwc,2013-08-22 15:10:00,
2013-08-22 09:15:00,67.6,52.8,29.85,North,355,3.0,-999.0,59,-99.99,,,0.00,510.0,cwc,2013-08-22 15:15:00,
2013-08-22 09:20:00,68.4,52.6,29.85,North,355,1.0,-999.0,56,-99.99,,,0.00,520.0,cwc,2013-08-22 15:20:00,
2013-08-22 09:25:00,69.3,53.1,29.84,North,360,3.0,-999.0,55,-99.99,,,0.00,531.0,cwc,2013-08-22 15:25:00,
2013-08-22 09:30:00,70.2,53.6,29.84,NNE,12,3.0,-999.0,54,-99.99,,,0.00,548.0,cwc,2013-08-22 15:30:00,
2013-08-22 09:35:00,71.1,53.8,29.83,North,5,0.0,-999.0,52,-99.99,,,0.00,563.0,cwc,2013-08-22 15:35:00,
2013-08-22 09:40:00,71.5,53.5,29.83,North,360,0.0,-999.0,50,-99.99,,,0.00,575.0,cwc,2013-08-22 15:40:00,
2013-08-22 09:45:00,72.1,54.1,29.83,North,5,0.0,-999.0,50,-99.99,,,0.00,592.0,cwc,2013-08-22 15:45:00,
2013-08-22 09:50:00,73.2,54.5,29.83,North,5,0.0,-999.0,48,-99.99,,,0.00,605.0,cwc,2013-08-22 15:50:00,
2013-08-22 09:55:00,74.3,54.9,29.83,North,360,0.0,-999.0,46,-99.99,,,0.00,619.0,cwc,2013-08-22 15:55:00,
2013-08-22 10:00:00,75.5,55.3,29.83,North,360,1.0,-999.0,44,-99.99,,,0.00,636.0,cwc,2013-08-22 16:00:00,
2013-08-22 10:05:00,75.8,55.6,29.83,North,5,1.0,-999.0,44,-99.99,,,0.00,650.0,cwc,2013-08-22 16:05:00,
2013-08-22 10:10:00,75.9,55.7,29.83,North,5,0.0,-999.0,44,-99.99,,,0.00,663.0,cwc,2013-08-22 16:10:00,
2013-08-22 10:15:00,76.2,56.0,29.83,North,360,0.0,-999.0,44,-99.99,,,0.00,675.0,cwc,2013-08-22 16:15:00,
2013-08-22 10:20:00,76.9,56.4,29.83,North,5,0.0,-999.0,43,-99.99,,,0.00,687.0,cwc,2013-08-22 16:20:00,
2013-08-22 10:25:00,77.6,56.7,29.82,North,5,0.0,-999.0,42,-99.99,,,0.00,703.0,cwc,2013-08-22 16:25:00,
2013-08-22 10:30:00,78.3,57.4,29.82,North,5,3.0,-999.0,42,-99.99,,,0.00,710.0,cwc,2013-08-22 16:30:00,
2013-08-22 10:40:00,79.6,58.0,29.82,North,9,3.0,-999.0,40,-99.99,,,0.00,740.0,cwc,2013-08-22 16:40:00,
2013-08-22 10:45:00,79.9,57.9,29.82,North,9,1.0,-999.0,39,-99.99,,,0.00,747.0,cwc,2013-08-22 16:45:00,
2013-08-22 10:50:00,80.4,58.1,29.81,North,9,0.0,-999.0,38,-99.99,,,0.00,758.0,cwc,2013-08-22 16:50:00,
2013-08-22 10:55:00,81.2,58.9,29.81,North,9,2.0,-999.0,38,-99.99,,,0.00,772.0,cwc,2013-08-22 16:55:00,
2013-08-22 11:00:00,81.9,59.6,29.81,North,9,0.0,-999.0,38,-99.99,,,0.00,784.0,cwc,2013-08-22 17:00:00,
2013-08-22 11:05:00,82.7,59.7,29.80,North,9,1.0,-999.0,36,-99.99,,,0.00,793.0,cwc,2013-08-22 17:05:00,
2013-08-22 11:10:00,83.5,59.7,29.80,North,5,3.0,-999.0,34,-99.99,,,0.00,803.0,cwc,2013-08-22 17:10:00,
2013-08-22 11:15:00,83.3,59.2,29.79,North,360,4.0,-999.0,33,-99.99,,,0.00,814.0,cwc,2013-08-22 17:15:00,
2013-08-22 11:20:00,83.1,59.0,29.79,North,5,3.0,-999.0,33,-99.99,,,0.00,821.0,cwc,2013-08-22 17:20:00,
2013-08-22 11:25:00,83.1,59.3,29.79,North,360,0.0,-999.0,34,-99.99,,,0.00,830.0,cwc,2013-08-22 17:25:00,
2013-08-22 11:35:00,84.8,61.0,29.78,North,9,2.0,-999.0,34,-99.99,,,0.00,847.0,cwc,2013-08-22 17:35:00,
2013-08-22 11:40:00,85.1,61.0,29.78,North,9,0.0,-999.0,33,-99.99,,,0.00,854.0,cwc,2013-08-22 17:40:00,
2013-08-22 11:45:00,85.5,61.0,29.77,North,10,2.0,-999.0,32,-99.99,,,0.00,863.0,cwc,2013-08-22 17:45:00,
2013-08-22 11:55:00,86.1,60.9,29.77,North,360,5.0,-999.0,30,-99.99,,,0.00,877.0,cwc,2013-08-22 17:55:00,
2013-08-22 12:00:00,85.9,60.7,29.76,WSW,252,6.0,-999.0,30,-99.99,,,0.00,879.0,cwc,2013-08-22 18:00:00,
2013-08-22 12:05:00,86.0,60.8,29.76,WSW,250,0.0,-999.0,30,-99.99,,,0.00,889.0,cwc,2013-08-22 18:05:00,
2013-08-22 12:10:00,86.5,61.3,29.76,NE,45,0.0,-999.0,30,-99.99,,,0.00,891.0,cwc,2013-08-22 18:10:00,
2013-08-22 12:20:00,87.7,62.1,29.75,NE,38,1.0,-999.0,29,-99.99,,,0.00,907.0,cwc,2013-08-22 18:20:00,
2013-08-22 12:25:00,87.7,61.8,29.75,ENE,63,2.0,-999.0,28,-99.99,,,0.00,909.0,cwc,2013-08-22 18:25:00,
2013-08-22 12:35:00,87.8,61.9,29.74,NE,51,5.0,-999.0,28,-99.99,,,0.00,916.0,cwc,2013-08-22 18:35:00,
2013-08-22 12:40:00,87.8,61.9,29.74,NNW,338,5.0,-999.0,28,-99.99,,,0.00,912.0,cwc,2013-08-22 18:40:00,
2013-08-22 12:45:00,87.8,61.9,29.74,ENE,66,1.0,-999.0,28,-99.99,,,0.00,916.0,cwc,2013-08-22 18:45:00,
2013-08-22 12:55:00,88.5,62.2,29.73,NNE,14,1.0,-999.0,27,-99.99,,,0.00,937.0,cwc,2013-08-22 18:55:00,
2013-08-22 13:00:00,88.9,62.6,29.73,South,174,2.0,-999.0,27,-99.99,,,0.00,949.0,cwc,2013-08-22 19:00:00,
2013-08-22 13:05:00,88.5,62.2,29.74,SW,233,8.0,-999.0,27,-99.99,,,0.00,974.0,cwc,2013-08-22 19:05:00,
2013-08-22 13:10:00,88.0,61.7,29.73,SSW,202,5.0,-999.0,27,-99.99,,,0.00,1011.0,cwc,2013-08-22 19:10:00,
2013-08-22 13:20:00,88.0,61.4,29.72,SE,144,2.0,-999.0,26,-99.99,,,0.00,1018.0,cwc,2013-08-22 19:20:00,
2013-08-22 13:25:00,88.4,62.1,29.71,NE,37,5.0,-999.0,27,-99.99,,,0.00,1023.0,cwc,2013-08-22 19:25:00,
2013-08-22 13:35:00,88.8,62.5,29.71,WNW,302,5.0,-999.0,27,-99.99,,,0.00,958.0,cwc,2013-08-22 19:35:00,
2013-08-22 13:40:00,89.6,63.0,29.71,South,171,1.0,-999.0,26,-99.99,,,0.00,947.0,cwc,2013-08-22 19:40:00,
2013-08-22 13:45:00,89.7,63.1,29.71,SSW,192,0.0,-999.0,26,-99.99,,,0.00,986.0,cwc,2013-08-22 19:45:00,
2013-08-22 13:50:00,89.9,62.9,29.70,SW,221,4.0,-999.0,25,-99.99,,,0.00,1021.0,cwc,2013-08-22 19:50:00,
2013-08-22 13:55:00,89.5,62.5,29.70,SSW,213,4.0,-999.0,25,-99.99,,,0.00,1035.0,cwc,2013-08-22 19:55:00,
2013-08-22 14:00:00,89.1,62.1,29.70,SSW,209,7.0,-999.0,25,-99.99,,,0.00,1104.0,cwc,2013-08-22 20:00:00,
2013-08-22 14:05:00,89.0,62.0,29.69,South,174,1.0,-999.0,25,-99.99,,,0.00,380.0,cwc,2013-08-22 20:05:00,
2013-08-22 14:15:00,89.6,62.6,29.69,South,171,4.0,-999.0,25,-99.99,,,0.00,209.0,cwc,2013-08-22 20:15:00,
2013-08-22 14:25:00,89.2,62.2,29.70,ESE,106,3.0,-999.0,25,-99.99,,,0.00,202.0,cwc,2013-08-22 20:25:00,
2013-08-22 14:30:00,88.6,62.0,29.70,NE,45,0.0,-999.0,26,-99.99,,,0.00,185.0,cwc,2013-08-22 20:30:00,
2013-08-22 14:35:00,87.4,62.6,29.70,North,355,11.0,-999.0,31,-99.99,,,0.00,385.0,cwc,2013-08-22 20:35:00,
2013-08-22 14:45:00,82.7,58.6,29.69,NNE,15,4.0,-999.0,33,-99.99,,,0.00,135.0,cwc,2013-08-22 20:45:00,
2013-08-22 14:50:00,82.0,57.2,29.69,NNE,14,3.0,-999.0,31,-99.99,,,0.00,171.0,cwc,2013-08-22 20:50:00,
2013-08-22 14:55:00,82.3,58.5,29.69,NE,38,4.0,-999.0,34,-99.99,,,0.00,135.0,cwc,2013-08-22 20:55:00,
2013-08-22 15:00:00,82.3,58.2,29.69,NE,38,3.0,-999.0,33,-99.99,,,0.00,111.0,cwc,2013-08-22 21:00:00,
2013-08-22 15:05:00,82.3,58.2,29.70,NE,38,0.0,-999.0,33,-99.99,,,0.00,79.0,cwc,2013-08-22 21:05:00,
2013-08-22 15:10:00,82.4,59.0,29.70,NE,38,1.0,-999.0,35,-99.99,,,0.00,60.0,cwc,2013-08-22 21:10:00,
2013-08-22 15:15:00,82.3,57.5,29.70,SE,139,2.0,-999.0,31,-99.99,,,0.00,54.0,cwc,2013-08-22 21:15:00,
2013-08-22 15:25:00,82.0,57.5,29.71,South,182,16.0,-999.0,32,-99.99,,,0.00,58.0,cwc,2013-08-22 21:25:00,
2013-08-22 15:35:00,79.5,56.1,29.70,SSW,205,15.0,-999.0,35,-99.99,,,0.00,67.0,cwc,2013-08-22 21:35:00,
2013-08-22 15:40:00,79.1,55.3,29.69,SSW,198,7.0,-999.0,34,-99.99,,,0.00,77.0,cwc,2013-08-22 21:40:00,
2013-08-22 15:45:00,79.3,55.5,29.69,South,184,0.0,-999.0,34,-99.99,,,0.00,90.0,cwc,2013-08-22 21:45:00,
2013-08-22 15:55:00,78.7,56.7,29.69,East,81,5.0,-999.0,39,-99.99,,,0.00,116.0,cwc,2013-08-22 21:55:00,
2013-08-22 16:05:00,78.0,56.0,29.70,NE,46,2.0,-999.0,39,-99.99,,,0.00,127.0,cwc,2013-08-22 22:05:00,
2013-08-22 16:10:00,77.8,56.2,29.70,ENE,58,4.0,-999.0,40,-99.99,,,0.00,127.0,cwc,2013-08-22 22:10:00,
2013-08-22 16:15:00,77.4,56.5,29.70,NE,38,5.0,-999.0,42,-99.99,,,0.00,118.0,cwc,2013-08-22 22:15:00,
2013-08-22 16:25:00,76.5,56.0,29.70,NE,37,2.0,-999.0,43,-99.99,,,0.00,111.0,cwc,2013-08-22 22:25:00,
2013-08-22 16:30:00,76.2,55.7,29.70,NE,38,4.0,-999.0,43,-99.99,,,0.00,109.0,cwc,2013-08-22 22:30:00,
2013-08-22 16:40:00,76.0,55.1,29.70,NE,38,2.0,-999.0,42,-99.99,,,0.00,107.0,cwc,2013-08-22 22:40:00,
2013-08-22 16:45:00,76.0,55.5,29.70,NE,38,4.0,-999.0,43,-99.99,,,0.00,120.0,cwc,2013-08-22 22:45:00,
2013-08-22 16:55:00,76.2,56.0,29.70,NE,45,0.0,-999.0,44,-99.99,,,0.00,179.0,cwc,2013-08-22 22:55:00,
2013-08-22 17:03:00,78.7,54.9,29.69,South,171,9.0,-999.0,34,-99.99,,,0.00,221.0,cwc,2013-08-22 23:03:00,
2013-08-22 17:08:00,80.7,56.2,29.69,South,184,10.0,-999.0,32,-99.99,,,0.00,188.0,cwc,2013-08-22 23:08:00,
2013-08-22 17:18:00,81.2,57.4,29.69,South,172,8.0,-999.0,34,-99.99,,,0.00,207.0,cwc,2013-08-22 23:18:00,
2013-08-22 17:28:00,81.3,57.5,29.68,SSE,167,7.0,-999.0,34,-99.99,,,0.00,167.0,cwc,2013-08-22 23:28:00,
2013-08-22 17:33:00,81.2,57.1,29.68,SE,142,6.0,-999.0,33,-99.99,,,0.00,160.0,cwc,2013-08-22 23:33:00,
2013-08-22 17:43:00,81.1,57.0,29.68,SSE,161,4.0,-999.0,33,-99.99,,,0.00,148.0,cwc,2013-08-22 23:43:00,
2013-08-22 17:53:00,80.7,56.6,29.69,South,172,3.0,-999.0,33,-99.99,,,0.00,111.0,cwc,2013-08-22 23:53:00,
2013-08-22 18:02:00,80.7,58.4,29.69,NE,47,7.0,-999.0,38,-99.99,,,0.00,109.0,cwc,2013-08-23 00:02:00,
2013-08-22 18:12:00,79.1,57.5,29.69,NE,46,2.0,-999.0,40,-99.99,,,0.00,120.0,cwc,2013-08-23 00:12:00,
2013-08-22 18:22:00,78.1,56.9,29.68,NE,37,10.0,-999.0,41,-99.99,,,0.00,104.0,cwc,2013-08-23 00:22:00,
2013-08-22 18:32:00,77.7,56.1,29.68,North,360,6.0,-999.0,40,-99.99,,,0.00,83.0,cwc,2013-08-23 00:32:00,
2013-08-22 18:42:00,77.7,56.5,29.68,North,5,3.0,-999.0,41,-99.99,,,0.00,65.0,cwc,2013-08-23 00:42:00,
2013-08-22 18:47:00,77.7,56.1,29.68,NNE,18,2.0,-999.0,40,-99.99,,,0.00,62.0,cwc,2013-08-23 00:47:00,
2013-08-22 18:52:00,77.7,56.1,29.69,NNE,18,3.0,-999.0,40,-99.99,,,0.00,60.0,cwc,2013-08-23 00:52:00,
2013-08-22 19:02:00,77.7,56.1,29.69,NNE,19,1.0,-999.0,40,-99.99,,,0.00,51.0,cwc,2013-08-23 01:02:00,
2013-08-22 19:12:00,77.8,56.2,29.69,NNE,18,0.0,-999.0,40,-99.99,,,0.00,32.0,cwc,2013-08-23 01:12:00,
2013-08-22 19:17:00,77.8,55.8,29.69,NNE,18,1.0,-999.0,39,-99.99,,,0.00,21.0,cwc,2013-08-23 01:17:00,
2013-08-22 19:27:00,77.9,55.9,29.69,NNE,19,0.0,-999.0,39,-99.99,,,0.00,11.0,cwc,2013-08-23 01:27:00,
2013-08-22 19:32:00,77.9,56.3,29.69,NNE,19,0.0,-999.0,40,-99.99,,,0.00,5.0,cwc,2013-08-23 01:32:00,
2013-08-22 19:37:00,77.9,56.3,29.70,NNE,19,0.0,-999.0,40,-99.99,,,0.00,0.0,cwc,2013-08-23 01:37:00,
2013-08-22 19:42:00,77.7,56.1,29.70,NNE,19,0.0,-999.0,40,-99.99,,,0.00,0.0,cwc,2013-08-23 01:42:00,
2013-08-22 19:52:00,77.3,57.1,29.70,NNE,18,0.0,-999.0,44,-99.99,,,0.00,0.0,cwc,2013-08-23 01:52:00,
2013-08-22 20:02:00,76.4,54.8,29.70,NNE,19,1.0,-999.0,40,-99.99,,,0.00,0.0,cwc,2013-08-23 02:02:00,
2013-08-22 20:12:00,76.3,55.1,29.71,NNE,19,0.0,-999.0,41,-99.99,,,0.00,0.0,cwc,2013-08-23 02:12:00,
2013-08-22 20:22:00,75.9,54.7,29.71,NNE,19,0.0,-999.0,41,-99.99,,,0.00,0.0,cwc,2013-08-23 02:22:00,
2013-08-22 20:32:00,75.6,54.0,29.70,NNE,18,0.0,-999.0,40,-99.99,,,0.00,0.0,cwc,2013-08-23 02:32:00,
2013-08-22 20:42:00,75.4,53.8,29.71,NNE,18,0.0,-999.0,40,-99.99,,,0.00,0.0,cwc,2013-08-23 02:42:00,
2013-08-22 20:52:00,75.1,53.9,29.72,NNE,19,0.0,-999.0,41,-99.99,,,0.00,0.0,cwc,2013-08-23 02:52:00,
2013-08-22 21:02:00,74.0,53.5,29.72,NNE,19,0.0,-999.0,43,-99.99,,,0.00,0.0,cwc,2013-08-23 03:02:00,
2013-08-22 21:12:00,72.8,53.7,29.73,NNE,19,0.0,-999.0,47,-99.99,,,0.00,0.0,cwc,2013-08-23 03:12:00,
2013-08-22 21:21:00,72.0,53.3,29.73,NNE,18,0.0,-999.0,48,-99.99,,,0.00,0.0,cwc,2013-08-23 03:21:00,
2013-08-22 21:26:00,71.7,53.3,29.73,NNE,18,0.0,-999.0,49,-99.99,,,0.00,0.0,cwc,2013-08-23 03:26:00,
2013-08-22 21:31:00,71.4,52.7,29.74,NNE,19,0.0,-999.0,48,-99.99,,,0.00,0.0,cwc,2013-08-23 03:31:00,
2013-08-22 21:41:00,70.8,52.4,29.75,NNE,18,0.0,-999.0,49,-99.99,,,0.00,0.0,cwc,2013-08-23 03:41:00,
2013-08-22 21:51:00,69.8,51.1,29.75,NNE,18,1.0,-999.0,48,-99.99,,,0.00,0.0,cwc,2013-08-23 03:51:00,
2013-08-22 22:01:00,68.9,50.5,29.75,NNE,19,0.0,-999.0,49,-99.99,,,0.00,0.0,cwc,2013-08-23 04:01:00,
2013-08-22 22:06:00,68.6,51.3,29.75,NNE,18,0.0,-999.0,52,-99.99,,,0.00,0.0,cwc,2013-08-23 04:06:00,
2013-08-22 22:11:00,68.4,51.8,29.75,NNE,19,0.0,-999.0,54,-99.99,,,0.00,0.0,cwc,2013-08-23 04:11:00,
2013-08-22 22:16:00,68.2,51.6,29.75,NNE,19,0.0,-999.0,54,-99.99,,,0.00,0.0,cwc,2013-08-23 04:16:00,
2013-08-22 22:21:00,68.0,51.4,29.75,NNE,19,2.0,-999.0,54,-99.99,,,0.00,0.0,cwc,2013-08-23 04:21:00,
2013-08-22 22:31:00,67.5,50.6,29.76,NNE,18,0.0,-999.0,53,-99.99,,,0.00,0.0,cwc,2013-08-23 04:31:00,
2013-08-22 22:41:00,66.8,50.2,29.77,NNE,19,0.0,-999.0,54,-99.99,,,0.00,0.0,cwc,2013-08-23 04:41:00,
2013-08-22 22:46:00,66.4,49.8,29.77,NNE,18,0.0,-999.0,54,-99.99,,,0.00,0.0,cwc,2013-08-23 04:46:00,
2013-08-22 22:51:00,65.9,49.7,29.77,NNE,19,0.0,-999.0,55,-99.99,,,0.00,0.0,cwc,2013-08-23 04:51:00,
2013-08-22 23:01:00,65.0,48.8,29.78,NNE,19,0.0,-999.0,55,-99.99,,,0.00,0.0,cwc,2013-08-23 05:01:00,
2013-08-22 23:06:00,64.6,48.8,29.78,NNE,18,0.0,-999.0,56,-99.99,,,0.00,0.0,cwc,2013-08-23 05:06:00,
2013-08-22 23:16:00,63.7,47.9,29.79,NNE,18,2.0,-999.0,56,-99.99,,,0.00,0.0,cwc,2013-08-23 05:16:00,
2013-08-22 23:26:00,63.3,48.2,29.79,NNE,19,0.0,-999.0,58,-99.99,,,0.00,0.0,cwc,2013-08-23 05:26:00,
2013-08-22 23:31:00,63.2,47.4,29.79,NNE,19,0.0,-999.0,56,-99.99,,,0.00,0.0,cwc,2013-08-23 05:31:00,
2013-08-22 23:36:00,62.9,47.4,29.80,NNE,19,2.0,-999.0,57,-99.99,,,0.00,0.0,cwc,2013-08-23 05:36:00,
2013-08-22 23:46:00,62.4,47.3,29.80,NNE,19,1.0,-999.0,58,-99.99,,,0.00,0.0,cwc,2013-08-23 05:46:00,
2013-08-22 23:51:00,62.3,46.8,29.79,NNE,18,0.0,-999.0,57,-99.99,,,0.00,0.0,cwc,2013-08-23 05:51:00,